Terminal Aerodrome Forecast
Issued by NWS

Home | Current Version | Previous Version | Text Only | Print | Product List | Glossary On
Versions: 1 2 3 4 5 6 7 8 9 10 11 12 13 14 15
817
FTUS43 KBIS 222336
TAFDIK
TAF
KDIK 222336Z 2300/2324 35013G21KT P6SM FEW060 BKN090
     FM230100 35008KT P6SM BKN090
     FM230600 32006KT P6SM BKN110
     FM232200 03013KT P6SM FEW150=

USA.gov is the U.S. government's official web portal to all federal, state and local government web resources and services.